createdAt,value
2019-03-03T00:01:45.570Z,95643.27
2019-03-03T00:04:34.341Z,95668.80
2019-03-03T00:07:23.118Z,95659.79
2019-03-03T00:10:12.456Z,95715.23
2019-03-03T00:13:01.302Z,95676.84
2019-03-03T00:15:50.067Z,95716.38
2019-03-03T00:18:31.320Z,95640.87
2019-03-03T00:21:20.086Z,95693.55
2019-03-03T00:24:08.889Z,95710.86
2019-03-03T00:26:38.313Z,95727.74
2019-03-03T00:29:07.750Z,95717.97
2019-03-03T00:31:39.589Z,95706.84
2019-03-03T00:34:09.027Z,95705.38
2019-03-03T00:36:58.239Z,95704.05
2019-03-03T00:39:45.644Z,95705.16
2019-03-03T00:42:34.738Z,95706.09
2019-03-03T00:45:21.319Z,95702.85
2019-03-03T00:48:08.505Z,95706.20
2019-03-03T00:50:42.204Z,95701.97
2019-03-03T00:53:29.146Z,95700.34
2019-03-03T00:56:03.237Z,95703.54
2019-03-03T00:58:38.301Z,95701.67
2019-03-03T01:01:09.487Z,95702.55
2019-03-03T01:03:40.555Z,95692.97
2019-03-03T01:06:17.054Z,95697.53
2019-03-03T01:08:50.875Z,95686.77
2019-03-03T01:11:21.944Z,95691.00
2019-03-03T01:14:01.958Z,95692.91
2019-03-03T01:16:49.740Z,95690.89
2019-03-03T01:19:20.804Z,95695.56
2019-03-03T01:21:54.612Z,95697.74
2019-03-03T01:24:25.663Z,95694.17
2019-03-03T01:26:55.135Z,95687.97
2019-03-03T01:29:24.639Z,95689.66
2019-03-03T01:31:54.074Z,95687.00
2019-03-03T01:34:23.504Z,95691.28
2019-03-03T01:36:52.933Z,95692.44
2019-03-03T01:39:22.355Z,95688.63
2019-03-03T01:41:51.784Z,95684.97
2019-03-03T01:44:21.209Z,95692.44
2019-03-03T01:46:50.640Z,95684.95
2019-03-03T01:49:20.082Z,95685.34
2019-03-03T01:51:49.507Z,95688.00
2019-03-03T01:54:18.949Z,95685.58
2019-03-03T01:56:48.369Z,95696.73
2019-03-03T01:59:17.806Z,95690.97
2019-03-03T02:01:47.277Z,95696.05
2019-03-03T02:04:16.704Z,95698.40
2019-03-03T02:06:46.128Z,95698.22
2019-03-03T02:09:15.824Z,95698.28
2019-03-03T02:11:45.307Z,95699.91
2019-03-03T02:14:14.736Z,95690.78
2019-03-03T02:16:44.164Z,95692.05
2019-03-03T02:19:13.599Z,95683.56
2019-03-03T02:21:43.108Z,95693.38
2019-03-03T02:24:12.558Z,95688.64
2019-03-03T02:26:42.074Z,95693.66
2019-03-03T02:29:11.513Z,95691.11
2019-03-03T02:31:40.936Z,95685.04
2019-03-03T02:34:10.391Z,95682.17
2019-03-03T02:36:39.816Z,95679.97
2019-03-03T02:39:15.618Z,95682.62
2019-03-03T02:41:45.041Z,95679.63
2019-03-03T02:44:14.731Z,95679.39
2019-03-03T02:46:44.155Z,95674.97
2019-03-03T02:49:13.604Z,95672.31
2019-03-03T02:51:43.032Z,95674.01
2019-03-03T02:54:12.465Z,95672.37
2019-03-03T02:56:41.894Z,95670.95
2019-03-03T02:59:11.328Z,95664.70
2019-03-03T03:01:42.414Z,95661.16
2019-03-03T03:04:11.860Z,95668.50
2019-03-03T03:06:42.924Z,95661.53
2019-03-03T03:09:14.278Z,95663.16
2019-03-03T03:11:43.540Z,95661.73
2019-03-03T03:14:20.603Z,95662.80
2019-03-03T03:17:00.365Z,95664.63
2019-03-03T03:19:31.454Z,95662.22
2019-03-03T03:22:02.537Z,95661.41
2019-03-03T03:24:34.695Z,95656.72
2019-03-03T03:27:08.485Z,95655.36
2019-03-03T03:29:42.045Z,95658.47
2019-03-03T03:32:19.136Z,95656.51
2019-03-03T03:34:50.232Z,95662.34
2019-03-03T03:37:33.337Z,95655.81
2019-03-03T03:40:04.407Z,95657.53
2019-03-03T03:42:51.603Z,95658.69
2019-03-03T03:45:26.542Z,95657.27
2019-03-03T03:48:00.317Z,95651.19
2019-03-03T03:50:31.399Z,95661.77
2019-03-03T03:53:08.233Z,95659.34
2019-03-03T03:55:49.838Z,95656.02
2019-03-03T03:58:29.755Z,95651.46
2019-03-03T04:01:15.765Z,95658.59
2019-03-03T04:03:49.346Z,95668.56
2019-03-03T04:06:20.408Z,95668.48
2019-03-03T04:09:01.999Z,95670.32
2019-03-03T04:11:48.362Z,95670.66
2019-03-03T04:14:25.359Z,95677.78
2019-03-03T04:16:56.422Z,95672.34
2019-03-03T04:19:30.228Z,95672.62
2019-03-03T04:22:02.102Z,95676.36
2019-03-03T04:24:36.054Z,95668.62
2019-03-03T04:27:07.115Z,95671.53
2019-03-03T04:29:44.111Z,95668.87
2019-03-03T04:32:15.176Z,95670.02
2019-03-03T04:34:46.253Z,95672.64
2019-03-03T04:37:32.414Z,95672.67
2019-03-03T04:40:09.374Z,95677.94
2019-03-03T04:42:38.573Z,95672.10
2019-03-03T04:45:21.675Z,95665.13
2019-03-03T04:48:05.520Z,95672.59
2019-03-03T04:50:51.887Z,95668.89
2019-03-03T04:53:29.000Z,95666.66
2019-03-03T04:56:05.558Z,95666.91
2019-03-03T04:58:51.843Z,95666.36
2019-03-03T05:01:31.931Z,95666.98
2019-03-03T05:04:01.124Z,95668.32
2019-03-03T05:06:32.263Z,95665.84
2019-03-03T05:09:06.032Z,95667.36
2019-03-03T05:12:23.491Z,95650.07
2019-03-03T05:14:54.566Z,95644.75
2019-03-03T05:17:39.061Z,95638.05
2019-03-03T05:20:10.407Z,95635.50
2019-03-03T05:22:39.829Z,95637.86
2019-03-03T05:25:09.436Z,95640.52
2019-03-03T05:27:38.859Z,95635.63
2019-03-03T05:30:12.611Z,95638.95
2019-03-03T05:32:42.036Z,95645.81
2019-03-03T05:35:11.830Z,95638.05
2019-03-03T05:37:41.255Z,95636.78
2019-03-03T05:40:10.690Z,95639.86
2019-03-03T05:42:40.112Z,95638.56
2019-03-03T05:45:09.680Z,95635.36
2019-03-03T05:47:39.106Z,95629.04
2019-03-03T05:50:08.532Z,95633.91
2019-03-03T05:52:37.982Z,95621.17
2019-03-03T05:55:07.777Z,95626.50
2019-03-03T05:57:37.206Z,95624.02
2019-03-03T06:00:10.783Z,95624.29
2019-03-03T06:02:40.209Z,95620.42
2019-03-03T06:05:09.621Z,95629.34
2019-03-03T06:07:39.043Z,95626.63
2019-03-03T06:10:10.206Z,95623.20
2019-03-03T06:12:39.635Z,95629.61
2019-03-03T06:15:13.608Z,95631.24
2019-03-03T06:17:43.031Z,95628.80
2019-03-03T06:20:13.414Z,95643.09
2019-03-03T06:22:42.836Z,95635.53
2019-03-03T06:25:12.527Z,95631.45
2019-03-03T06:27:41.955Z,95628.04
2019-03-03T06:30:30.752Z,95629.55
2019-03-03T06:33:19.504Z,95621.88
2019-03-03T06:36:08.286Z,95615.50
2019-03-03T06:38:57.064Z,95622.39
2019-03-03T06:41:45.833Z,95622.72
2019-03-03T06:44:34.646Z,95633.03
2019-03-03T06:47:23.405Z,95630.35
2019-03-03T06:53:27.996Z,95629.48
2019-03-03T06:56:16.781Z,95575.45
2019-03-03T06:59:05.600Z,95631.78
2019-03-03T07:01:47.174Z,95630.12
2019-03-03T07:04:35.945Z,95581.16
2019-03-03T07:07:24.705Z,95544.08
2019-03-03T07:13:29.045Z,95553.35
2019-03-03T07:16:17.830Z,95566.67
2019-03-03T07:19:06.617Z,95611.72
2019-03-03T07:21:55.417Z,95605.23
2019-03-03T07:24:44.176Z,95612.33
2019-03-03T07:27:32.960Z,95581.92
2019-03-03T07:30:21.724Z,95613.81
2019-03-03T07:36:12.651Z,95615.38
2019-03-03T07:39:01.430Z,95542.48
2019-03-03T07:41:50.252Z,95613.84
2019-03-03T07:44:39.021Z,95574.28
2019-03-03T07:47:27.818Z,95614.59
2019-03-03T07:50:16.593Z,95619.97
2019-03-03T07:53:05.429Z,95605.18
2019-03-03T07:55:54.208Z,95617.02
2019-03-03T07:58:42.988Z,95601.70
2019-03-03T08:01:31.778Z,95564.89
2019-03-03T08:04:20.579Z,95615.08
2019-03-03T08:07:09.350Z,95591.09
2019-03-03T08:09:38.792Z,95619.67
2019-03-03T08:12:27.560Z,95625.28
2019-03-03T08:15:36.394Z,95579.38
2019-03-03T08:18:25.165Z,95620.91
2019-03-03T08:21:13.955Z,95619.41
2019-03-03T08:24:02.745Z,95540.14
2019-03-03T08:26:51.506Z,95612.74
2019-03-03T08:29:40.317Z,95619.63
2019-03-03T08:32:29.096Z,95601.81
2019-03-03T08:35:38.804Z,95602.36
2019-03-03T08:38:18.600Z,95600.23
2019-03-03T08:41:07.426Z,95589.88
2019-03-03T08:47:24.612Z,95614.77
2019-03-03T08:50:32.442Z,95580.43
2019-03-03T08:53:40.245Z,95595.23
2019-03-03T08:56:48.080Z,95543.06
2019-03-03T08:59:55.920Z,95549.30
2019-03-03T09:03:03.721Z,95585.78
2019-03-03T09:06:11.561Z,95593.81
2019-03-03T09:15:45.386Z,95589.78
2019-03-03T09:18:53.209Z,95583.02
2019-03-03T09:22:01.025Z,95513.75
2019-03-03T09:25:08.834Z,95555.36
2019-03-03T09:28:16.635Z,95516.16
2019-03-03T09:31:00.292Z,95492.55
2019-03-03T09:34:08.137Z,95490.63
2019-03-03T09:37:15.935Z,95549.23
2019-03-03T09:40:44.660Z,95534.73
2019-03-03T09:43:52.479Z,95486.44
2019-03-03T09:49:56.187Z,95543.25
2019-03-03T09:55:20.984Z,95548.55
2019-03-03T09:58:28.793Z,95542.52
2019-03-03T10:04:35.544Z,95543.77
2019-03-03T10:07:43.359Z,95542.70
2019-03-03T10:10:26.495Z,95536.73
2019-03-03T10:16:30.211Z,95541.17
2019-03-03T10:19:37.962Z,95486.75
2019-03-03T10:25:20.438Z,95555.30
2019-03-03T10:28:28.233Z,95502.95
2019-03-03T10:31:36.082Z,95537.38
2019-03-03T10:37:53.296Z,95550.88
2019-03-03T10:44:10.470Z,95519.67
2019-03-03T10:47:18.295Z,95461.75
2019-03-03T10:56:29.732Z,95502.13
2019-03-03T10:59:37.551Z,95517.42
2019-03-03T11:05:44.365Z,95503.66
2019-03-03T11:08:52.189Z,95514.55
2019-03-03T11:12:00.003Z,95492.16
2019-03-03T11:15:07.803Z,95479.53
2019-03-03T11:21:14.612Z,95480.27
2019-03-03T11:27:17.866Z,95490.53
2019-03-03T11:30:46.572Z,95482.07
2019-03-03T11:33:54.399Z,95504.61
2019-03-03T11:40:11.655Z,95493.61
2019-03-03T11:43:19.479Z,95493.70
2019-03-03T11:49:29.985Z,95404.75
2019-03-03T11:52:37.802Z,95458.36
2019-03-03T11:55:26.337Z,95390.54
2019-03-03T11:58:34.160Z,95450.97
2019-03-03T12:01:41.961Z,95457.45
2019-03-03T12:04:49.803Z,95443.69
2019-03-03T12:07:57.634Z,95440.38
2019-03-03T12:11:05.439Z,95438.66
2019-03-03T12:20:07.906Z,95423.00
2019-03-03T12:23:17.188Z,95391.66
2019-03-03T12:26:25.429Z,95399.74
2019-03-03T12:29:33.239Z,95418.49
2019-03-03T12:32:41.082Z,95404.39
2019-03-03T12:38:44.835Z,95403.81
2019-03-03T12:41:31.368Z,95388.85
2019-03-03T12:44:20.686Z,95415.60
2019-03-03T12:46:58.985Z,95391.74
2019-03-03T12:49:45.947Z,95393.89
2019-03-03T12:52:22.736Z,95405.47
2019-03-03T12:55:09.958Z,95405.84
2019-03-03T12:57:43.540Z,95389.98
2019-03-03T13:00:21.937Z,95381.48
2019-03-03T13:03:08.994Z,95385.88
2019-03-03T13:05:40.112Z,95391.55
2019-03-03T13:08:27.253Z,95396.55
2019-03-03T13:11:00.826Z,95398.11
2019-03-03T13:13:34.757Z,95375.78
2019-03-03T13:16:11.676Z,95374.61
2019-03-03T13:18:43.038Z,95360.13
2019-03-03T13:21:19.905Z,95359.37
2019-03-03T13:24:00.350Z,95355.53
2019-03-03T13:26:49.673Z,95368.33
2019-03-03T13:29:32.900Z,95352.05
2019-03-03T13:32:05.018Z,95372.66
2019-03-03T13:34:34.276Z,95352.92
2019-03-03T13:37:05.390Z,95348.98
2019-03-03T13:39:52.614Z,95334.66
2019-03-03T13:42:26.373Z,95348.77
2019-03-03T13:44:55.971Z,95372.86
2019-03-03T13:47:25.481Z,95343.27
2019-03-03T13:49:54.969Z,95319.86
2019-03-03T13:52:24.487Z,95320.73
2019-03-03T13:54:53.980Z,95308.50
2019-03-03T13:57:24.410Z,95317.12
2019-03-03T13:59:53.969Z,95308.38
2019-03-03T14:02:23.571Z,95312.56
2019-03-03T14:04:53.111Z,95302.28
2019-03-03T14:07:22.633Z,95299.11
2019-03-03T14:09:52.124Z,95301.13
2019-03-03T14:12:22.448Z,95298.05
2019-03-03T14:14:51.939Z,95298.02
2019-03-03T14:17:21.415Z,95297.75
2019-03-03T14:19:50.891Z,95281.47
2019-03-03T14:22:20.370Z,95287.53
2019-03-03T14:24:49.923Z,95264.49
2019-03-03T14:27:19.390Z,95285.47
2019-03-03T14:29:48.875Z,95271.81
2019-03-03T14:32:18.430Z,95270.31
2019-03-03T14:34:47.945Z,95278.27
2019-03-03T14:37:17.450Z,95268.16
2019-03-03T14:39:46.942Z,95273.40
2019-03-03T14:42:16.446Z,95269.13
2019-03-03T14:44:45.906Z,95265.41
2019-03-03T14:47:15.412Z,95269.13
2019-03-03T14:49:44.905Z,95265.47
2019-03-03T14:52:14.491Z,95258.26
2019-03-03T14:58:18.007Z,95265.06
2019-03-03T15:04:02.573Z,95242.20
2019-03-03T15:06:51.588Z,95253.48
2019-03-03T15:09:40.354Z,95234.47
2019-03-03T15:12:29.132Z,95240.89
2019-03-03T15:15:38.027Z,95230.46
2019-03-03T15:18:26.800Z,95214.56
2019-03-03T15:21:24.551Z,95186.08
2019-03-03T15:30:29.355Z,95207.53
2019-03-03T15:33:18.383Z,95183.75
2019-03-03T15:35:48.385Z,95192.01
2019-03-03T15:38:37.239Z,95189.27
2019-03-03T15:44:41.311Z,95182.78
2019-03-03T15:47:30.098Z,95129.03
2019-03-03T15:50:11.789Z,95140.03
2019-03-03T15:53:00.653Z,95175.55
2019-03-03T15:55:49.465Z,95171.02
2019-03-03T15:58:38.234Z,95162.74
2019-03-03T16:01:27.005Z,95138.91
2019-03-03T16:04:15.778Z,95117.62
2019-03-03T16:07:04.566Z,95158.48
2019-03-03T16:13:03.859Z,95151.72
2019-03-03T16:15:53.239Z,95146.10
2019-03-03T16:18:42.089Z,95150.15
2019-03-03T16:24:38.841Z,95147.23
2019-03-03T16:33:40.888Z,95098.03
2019-03-03T16:36:29.878Z,95151.78
2019-03-03T16:39:19.264Z,95098.13
2019-03-03T16:42:09.144Z,95159.61
2019-03-03T16:44:58.269Z,95151.34
2019-03-03T16:47:47.059Z,95151.89
2019-03-03T16:50:29.347Z,95107.81
2019-03-03T16:53:18.132Z,95099.80
2019-03-03T16:59:02.562Z,95149.79
2019-03-03T17:01:51.550Z,95138.28
2019-03-03T17:04:40.645Z,95150.67
2019-03-03T17:08:03.092Z,95151.75
2019-03-03T17:13:48.868Z,95147.95
2019-03-03T17:19:53.281Z,95135.90
2019-03-03T17:22:42.079Z,95122.31
2019-03-03T17:28:40.665Z,95112.64
2019-03-03T17:31:50.815Z,95120.14
2019-03-03T17:34:39.598Z,95116.44
2019-03-03T17:37:28.392Z,95115.90
2019-03-03T17:40:38.086Z,95073.92
2019-03-03T17:43:26.859Z,95120.72
2019-03-03T17:46:08.642Z,95127.70
2019-03-03T17:49:16.797Z,95114.27
2019-03-03T17:52:05.641Z,95130.92
2019-03-03T17:58:02.164Z,95104.95
2019-03-03T18:00:50.938Z,95100.70
2019-03-03T18:03:39.720Z,95091.09
2019-03-03T18:06:38.385Z,95094.83
2019-03-03T18:09:18.996Z,95094.02
2019-03-03T18:12:07.831Z,95098.03
2019-03-03T18:14:56.614Z,95095.93
2019-03-03T18:17:45.420Z,95094.07
2019-03-03T18:20:34.188Z,95093.78
2019-03-03T18:23:23.022Z,95086.08
2019-03-03T18:26:11.772Z,95079.91
2019-03-03T18:28:41.230Z,95023.56
2019-03-03T18:31:10.743Z,95072.98
2019-03-03T18:33:40.196Z,95076.19
2019-03-03T18:36:09.629Z,95074.31
2019-03-03T18:38:39.086Z,95078.05
2019-03-03T18:41:08.520Z,95074.57
2019-03-03T18:43:37.975Z,95071.37
2019-03-03T18:46:07.463Z,95068.16
2019-03-03T18:48:36.913Z,95062.80
2019-03-03T18:51:07.322Z,95067.63
2019-03-03T18:53:36.778Z,95072.45
2019-03-03T18:56:06.474Z,95071.11
2019-03-03T18:58:35.924Z,95067.58
2019-03-03T19:01:05.689Z,95053.95
2019-03-03T19:03:35.166Z,95051.28
2019-03-03T19:06:04.642Z,95050.47
2019-03-03T19:08:34.096Z,95052.38
2019-03-03T19:11:03.604Z,95045.94
2019-03-03T19:13:33.064Z,95041.92
2019-03-03T19:16:02.503Z,95041.66
2019-03-03T19:18:32.739Z,95040.58
2019-03-03T19:21:02.173Z,95041.11
2019-03-03T19:23:31.631Z,95042.19
2019-03-03T19:26:01.067Z,95042.72
2019-03-03T19:28:30.546Z,95045.13
2019-03-03T19:30:59.996Z,95046.73
2019-03-03T19:33:37.044Z,95042.72
2019-03-03T19:36:08.395Z,95042.44
2019-03-03T19:38:37.828Z,95041.92
2019-03-03T19:41:07.329Z,95042.48
2019-03-03T19:43:36.762Z,95043.26
2019-03-03T19:46:10.388Z,95035.27
2019-03-03T19:48:40.109Z,95030.73
2019-03-03T19:51:09.817Z,95030.20
2019-03-03T19:53:39.255Z,95027.77
2019-03-03T19:56:09.616Z,95030.20
2019-03-03T19:58:39.054Z,95024.89
2019-03-03T20:01:08.544Z,95020.60
2019-03-03T20:03:38.005Z,95020.08
2019-03-03T20:06:07.512Z,95024.89
2019-03-03T20:08:36.966Z,95022.51
2019-03-03T20:11:06.394Z,95020.08
2019-03-03T20:13:35.925Z,95017.16
2019-03-03T20:16:06.265Z,95009.66
2019-03-03T20:18:35.712Z,95015.83
2019-03-03T20:21:05.317Z,95009.70
2019-03-03T20:23:34.783Z,95011.86
2019-03-03T20:26:04.373Z,95018.02
2019-03-03T20:28:33.805Z,95013.76
2019-03-03T20:31:04.052Z,95011.89
2019-03-03T20:33:33.474Z,95004.15
2019-03-03T20:36:02.949Z,94996.94
2019-03-03T20:38:32.426Z,95001.22
2019-03-03T20:41:01.877Z,95001.22
2019-03-03T20:43:31.301Z,95006.85
2019-03-03T20:46:00.759Z,95001.50
2019-03-03T20:48:30.181Z,94999.11
2019-03-03T20:50:59.612Z,94999.88
2019-03-03T20:53:29.064Z,95004.70
2019-03-03T20:55:58.585Z,95003.35
2019-03-03T20:58:28.028Z,95001.77
2019-03-03T21:00:57.455Z,95003.38
2019-03-03T21:03:26.974Z,95001.23
2019-03-03T21:05:56.432Z,94994.27
2019-03-03T21:08:25.846Z,94998.81
2019-03-03T21:10:55.297Z,94994.27
2019-03-03T21:13:24.731Z,94991.59
2019-03-03T21:15:54.172Z,94984.14
2019-03-03T21:18:23.617Z,94971.05
2019-03-03T21:20:53.045Z,94965.69
2019-03-03T21:23:22.492Z,94967.02
2019-03-03T21:25:51.925Z,94964.32
2019-03-03T21:28:21.368Z,94956.30
2019-03-03T21:30:51.745Z,94962.45
2019-03-03T21:33:21.182Z,94963.51
2019-03-03T21:35:50.938Z,94966.47
2019-03-03T21:38:20.368Z,94968.86
2019-03-03T21:40:49.828Z,94957.11
2019-03-03T21:43:20.953Z,94957.64
2019-03-03T21:45:50.593Z,94949.62
2019-03-03T21:48:20.081Z,94948.80
2019-03-03T21:50:49.535Z,94951.52
2019-03-03T21:53:18.971Z,94954.19
2019-03-03T21:55:48.430Z,94954.46
2019-03-03T21:58:17.871Z,94956.33
2019-03-03T22:00:47.489Z,94957.39
2019-03-03T22:03:16.931Z,94949.92
2019-03-03T22:05:46.376Z,94953.91
2019-03-03T22:08:15.852Z,94947.50
2019-03-03T22:10:45.303Z,94948.84
2019-03-03T22:13:14.735Z,94946.72
2019-03-03T22:15:44.188Z,94948.31
2019-03-03T22:18:13.858Z,94938.17
2019-03-03T22:20:43.306Z,94941.91
2019-03-03T22:23:12.738Z,94933.36
2019-03-03T22:25:42.200Z,94936.31
2019-03-03T22:28:11.624Z,94932.83
2019-03-03T22:30:41.081Z,94930.94
2019-03-03T22:33:10.543Z,94932.27
2019-03-03T22:35:40.003Z,94925.09
2019-03-03T22:38:09.440Z,94927.73
2019-03-03T22:40:38.887Z,94925.09
2019-03-03T22:43:08.320Z,94921.62
2019-03-03T22:45:37.782Z,94917.09
2019-03-03T22:48:07.223Z,94913.36
2019-03-03T22:50:36.676Z,94906.41
2019-03-03T22:53:06.107Z,94903.75
2019-03-03T22:55:36.813Z,94904.03
2019-03-03T22:58:06.489Z,94906.14
2019-03-03T23:00:44.573Z,94895.19
2019-03-03T23:03:24.656Z,94892.54
2019-03-03T23:06:33.527Z,94888.78
2019-03-03T23:09:32.120Z,94890.14
2019-03-03T23:12:21.007Z,94893.86
2019-03-03T23:14:57.858Z,94878.40
2019-03-03T23:18:08.358Z,94874.38
2019-03-03T23:20:58.944Z,94874.64
2019-03-03T23:23:47.746Z,94864.26
2019-03-03T23:26:17.188Z,94861.30
2019-03-03T23:28:46.620Z,94860.50
2019-03-03T23:31:16.069Z,94859.97
2019-03-03T23:33:45.496Z,94855.96
2019-03-03T23:36:14.974Z,94850.34
2019-03-03T23:38:44.399Z,94846.34
2019-03-03T23:41:13.845Z,94846.88
2019-03-03T23:43:43.284Z,94837.81
2019-03-03T23:46:12.725Z,94831.91
2019-03-03T23:48:42.170Z,94825.77
2019-03-03T23:51:11.621Z,94835.67
2019-03-03T23:53:41.056Z,94828.71
2019-03-03T23:56:10.550Z,94819.64
2019-03-03T23:58:39.967Z,94816.17
